createdAt,value
2024-02-29T00:08:54.809Z,96134.00
2024-02-29T00:09:24.975Z,96136.00
2024-02-29T00:10:24.972Z,96136.00
2024-02-29T00:11:24.985Z,96134.00
2024-02-29T00:12:25.001Z,96132.00
2024-02-29T00:13:24.967Z,96131.00
2024-02-29T00:14:24.983Z,96130.00
2024-02-29T00:15:24.976Z,96128.00
2024-02-29T00:16:24.978Z,96127.00
2024-02-29T00:17:25.003Z,96128.00
2024-02-29T00:18:24.995Z,96127.00
2024-02-29T00:19:24.992Z,96129.00
2024-02-29T00:20:24.980Z,96126.00
2024-02-29T00:21:24.975Z,96128.00
2024-02-29T00:22:25.038Z,96127.00
2024-02-29T00:23:25.020Z,96126.00
2024-02-29T00:24:25.002Z,96128.00
2024-02-29T00:25:24.996Z,96128.00
2024-02-29T00:29:03.687Z,96122.00
2024-02-29T00:29:33.694Z,96121.00
2024-02-29T00:30:33.727Z,96116.00
2024-02-29T00:31:33.684Z,96116.00
2024-02-29T00:32:33.705Z,96116.00
2024-02-29T00:33:33.762Z,96116.00
2024-02-29T00:34:33.710Z,96116.00
2024-02-29T00:35:33.702Z,96116.00
2024-02-29T00:36:33.702Z,96118.00
2024-02-29T00:37:33.720Z,96117.00
2024-02-29T00:39:06.237Z,96115.00
2024-02-29T00:39:34.747Z,96116.00
2024-02-29T00:40:33.704Z,96117.00
2024-02-29T00:41:33.709Z,96115.00
2024-02-29T00:42:33.735Z,96112.00
2024-02-29T00:48:18.097Z,96105.00
2024-02-29T00:48:51.121Z,96103.00
2024-02-29T00:49:51.078Z,96103.00
2024-02-29T00:50:51.091Z,96102.00
2024-02-29T00:51:51.148Z,96100.00
2024-02-29T00:52:51.101Z,96098.00
2024-02-29T00:53:51.104Z,96094.00
2024-02-29T00:54:51.158Z,96090.00
2024-02-29T00:55:51.088Z,96088.00
2024-02-29T00:56:51.101Z,96088.00
2024-02-29T00:57:51.139Z,96087.00
2024-02-29T00:58:51.114Z,96085.00
2024-02-29T00:59:51.098Z,96084.00
2024-02-29T01:00:51.189Z,96083.00
2024-02-29T01:01:51.260Z,96080.00
2024-02-29T01:02:51.146Z,96079.00
2024-02-29T01:03:51.218Z,96076.00
2024-02-29T01:04:51.121Z,96074.00
2024-02-29T01:05:51.110Z,96072.00
2024-02-29T01:07:18.150Z,96070.00
2024-02-29T01:07:51.123Z,96070.00
2024-02-29T01:08:51.163Z,96069.00
2024-02-29T01:09:51.181Z,96070.00
2024-02-29T01:11:18.212Z,96071.00
2024-02-29T01:11:51.137Z,96069.00
2024-02-29T01:12:51.156Z,96069.00
2024-02-29T01:13:51.123Z,96069.00
2024-02-29T01:14:51.166Z,96068.00
2024-02-29T01:15:51.135Z,96064.00
2024-02-29T01:16:51.132Z,96065.00
2024-02-29T01:17:51.787Z,96067.00
2024-02-29T01:23:38.546Z,96060.00
2024-02-29T01:24:08.542Z,96062.00
2024-02-29T01:25:08.550Z,96064.00
2024-02-29T01:26:08.533Z,96064.00
2024-02-29T01:27:08.563Z,96064.00
2024-02-29T01:28:08.607Z,96062.00
2024-02-29T01:29:08.523Z,96058.00
2024-02-29T01:30:08.560Z,96057.00
2024-02-29T01:31:08.553Z,96057.00
2024-02-29T01:32:15.862Z,96054.00
2024-02-29T01:34:58.051Z,96054.00
2024-02-29T01:35:08.550Z,96055.00
2024-02-29T01:36:09.191Z,96052.00
2024-02-29T01:42:59.896Z,96041.00
2024-02-29T01:43:30.537Z,96042.00
2024-02-29T01:44:30.617Z,96039.00
2024-02-29T01:48:06.319Z,96044.00
2024-02-29T01:48:39.274Z,96038.00
2024-02-29T01:50:03.757Z,96037.00
2024-02-29T01:50:39.269Z,96034.00
2024-02-29T01:51:39.288Z,96032.00
2024-02-29T01:58:30.511Z,96031.00
2024-02-29T01:59:01.155Z,96031.00
2024-02-29T02:00:01.194Z,96031.00
2024-02-29T02:01:01.307Z,96030.00
2024-02-29T02:02:01.329Z,96030.00
2024-02-29T02:03:01.274Z,96030.00
2024-02-29T02:04:06.381Z,96031.00
2024-02-29T02:05:01.322Z,96032.00
2024-02-29T02:06:01.345Z,96031.00
2024-02-29T02:07:01.374Z,96027.00
2024-02-29T02:08:01.324Z,96026.00
2024-02-29T02:09:32.709Z,96022.00
2024-02-29T02:10:01.410Z,96022.00
2024-02-29T02:11:01.406Z,96020.00
2024-02-29T02:12:01.345Z,96019.00
2024-02-29T02:13:01.411Z,96018.00
2024-02-29T02:14:01.355Z,96021.00
2024-02-29T02:15:01.346Z,96018.00
2024-02-29T02:16:01.481Z,96016.00
2024-02-29T02:17:01.358Z,96014.00
2024-02-29T02:18:01.407Z,96010.00
2024-02-29T02:19:01.395Z,96011.00
2024-02-29T02:20:01.552Z,96008.00
2024-02-29T02:21:01.366Z,96006.00
2024-02-29T02:22:01.366Z,96008.00
2024-02-29T02:23:01.348Z,96004.00
2024-02-29T02:24:06.384Z,96003.00
2024-02-29T02:25:01.405Z,96000.00
2024-02-29T02:26:01.357Z,95996.00
2024-02-29T02:27:01.376Z,95999.00
2024-02-29T02:28:01.375Z,96001.00
2024-02-29T02:29:06.376Z,96000.00
2024-02-29T02:30:01.357Z,96001.00
2024-02-29T02:36:50.183Z,96005.00
2024-02-29T02:37:23.104Z,96007.00
2024-02-29T02:38:23.115Z,96005.00
2024-02-29T02:39:23.744Z,96001.00
2024-02-29T02:40:23.113Z,96000.00
2024-02-29T02:41:23.105Z,96000.00
2024-02-29T02:42:23.121Z,96000.00
2024-02-29T02:43:23.101Z,95998.00
2024-02-29T02:44:28.894Z,95998.00
2024-02-29T02:45:23.104Z,95996.00
2024-02-29T02:46:23.114Z,95997.00
2024-02-29T02:47:23.146Z,95998.00
2024-02-29T02:48:23.120Z,95996.00
2024-02-29T02:49:23.113Z,95995.00
2024-02-29T02:50:23.200Z,95994.00
2024-02-29T02:51:23.120Z,95992.00
2024-02-29T02:52:23.163Z,95995.00
2024-02-29T02:53:23.116Z,95992.00
2024-02-29T02:59:07.534Z,95987.00
2024-02-29T02:59:40.611Z,95985.00
2024-02-29T03:00:40.657Z,95987.00
2024-02-29T03:01:40.818Z,95985.00
2024-02-29T03:02:40.588Z,95986.00
2024-02-29T03:03:40.543Z,95984.00
2024-02-29T03:05:07.857Z,95981.00
2024-02-29T03:05:40.510Z,95982.00
2024-02-29T03:07:07.691Z,95980.00
2024-02-29T03:07:40.618Z,95979.00
2024-02-29T03:08:40.515Z,95978.00
2024-02-29T03:17:41.996Z,95971.00
2024-02-29T03:18:10.978Z,95972.00
2024-02-29T03:19:10.981Z,95971.00
2024-02-29T03:20:10.957Z,95973.00
2024-02-29T03:21:10.982Z,95972.00
2024-02-29T03:22:11.055Z,95971.00
2024-02-29T03:23:10.956Z,95973.00
2024-02-29T03:24:10.972Z,95970.00
2024-02-29T03:25:11.063Z,95970.00
2024-02-29T03:26:10.988Z,95968.00
2024-02-29T03:27:11.058Z,95968.00
2024-02-29T03:28:10.969Z,95968.00
2024-02-29T03:29:10.962Z,95967.00
2024-02-29T03:30:10.962Z,95965.00
2024-02-29T03:31:11.060Z,95965.00
2024-02-29T03:32:10.991Z,95963.00
2024-02-29T03:33:11.038Z,95963.00
2024-02-29T03:34:10.982Z,95962.00
2024-02-29T03:50:39.025Z,95954.00
2024-02-29T03:51:11.878Z,95953.00
2024-02-29T04:30:11.028Z,95935.00
2024-02-29T04:30:44.093Z,95939.00
2024-02-29T04:31:43.992Z,95936.00
2024-02-29T04:32:44.010Z,95937.00
2024-02-29T04:33:44.027Z,95937.00
2024-02-29T04:49:12.632Z,95935.00
2024-02-29T04:49:40.507Z,95934.00
2024-02-29T04:50:40.517Z,95930.00
2024-02-29T04:51:40.548Z,95930.00
2024-02-29T04:52:40.592Z,95928.00
2024-02-29T04:53:40.545Z,95928.00
2024-02-29T04:54:40.546Z,95928.00
2024-02-29T04:55:40.524Z,95928.00
2024-02-29T04:56:40.513Z,95925.00
2024-02-29T04:57:40.661Z,95925.00
2024-02-29T04:58:40.671Z,95925.00
2024-02-29T04:59:40.675Z,95922.00
2024-02-29T05:00:40.793Z,95920.00
2024-02-29T05:01:40.936Z,95917.00
2024-02-29T05:02:40.763Z,95916.00
2024-02-29T05:03:40.954Z,95918.00
2024-02-29T05:04:40.972Z,95915.00
2024-02-29T05:05:40.893Z,95918.00
2024-02-29T05:06:40.927Z,95917.00
2024-02-29T05:07:40.958Z,95917.00
2024-02-29T05:08:41.014Z,95919.00
2024-02-29T05:13:23.575Z,95917.00
2024-02-29T05:13:54.247Z,95919.00
2024-02-29T05:14:54.232Z,95919.00
2024-02-29T05:15:54.317Z,95919.00
2024-02-29T05:20:37.194Z,95916.00
2024-02-29T05:21:07.385Z,95916.00
2024-02-29T05:22:07.449Z,95913.00
2024-02-29T05:23:07.373Z,95913.00
2024-02-29T05:24:07.374Z,95915.00
2024-02-29T05:25:07.415Z,95917.00
2024-02-29T05:26:07.375Z,95918.00
2024-02-29T05:27:07.381Z,95917.00
2024-02-29T05:28:07.452Z,95918.00
2024-02-29T05:29:07.434Z,95916.00
2024-02-29T05:30:07.386Z,95914.00
2024-02-29T05:31:07.399Z,95913.00
2024-02-29T05:32:07.386Z,95916.00
2024-02-29T05:33:07.477Z,95913.00
2024-02-29T05:34:07.400Z,95914.00
2024-02-29T05:35:07.399Z,95914.00
2024-02-29T05:36:07.400Z,95911.00
2024-02-29T05:37:07.414Z,95911.00
2024-02-29T05:38:07.395Z,95910.00
2024-02-29T05:54:38.603Z,95911.00
2024-02-29T05:55:08.315Z,95908.00
2024-02-29T05:56:08.260Z,95911.00
2024-02-29T05:57:08.270Z,95913.00
2024-02-29T05:58:08.314Z,95914.00
2024-02-29T05:59:08.276Z,95913.00
2024-02-29T06:00:08.265Z,95912.00
2024-02-29T06:01:08.366Z,95912.00
2024-02-29T06:02:08.338Z,95912.00
2024-02-29T06:03:08.271Z,95912.00
2024-02-29T06:04:08.336Z,95908.00
2024-02-29T06:05:08.284Z,95905.00
2024-02-29T06:06:08.284Z,95910.00
2024-02-29T06:07:08.303Z,95910.00
2024-02-29T06:08:08.341Z,95909.00
2024-02-29T06:09:08.284Z,95910.00
2024-02-29T06:10:08.412Z,95912.00
2024-02-29T06:11:08.300Z,95912.00
2024-02-29T06:12:08.276Z,95913.00
2024-02-29T06:13:08.285Z,95912.00
2024-02-29T06:14:08.283Z,95914.00
2024-02-29T06:15:11.086Z,95915.00
2024-02-29T06:16:08.350Z,95916.00
2024-02-29T06:17:08.303Z,95914.00
2024-02-29T06:18:08.405Z,95915.00
2024-02-29T06:19:08.381Z,95915.00
2024-02-29T06:20:08.296Z,95912.00
2024-02-29T06:21:08.305Z,95915.00
2024-02-29T06:22:08.370Z,95916.00
2024-02-29T06:40:50.907Z,95917.00
2024-02-29T06:41:17.865Z,95917.00
2024-02-29T06:42:17.837Z,95916.00
2024-02-29T06:43:17.966Z,95918.00
2024-02-29T06:44:17.879Z,95920.00
2024-02-29T06:45:18.030Z,95918.00
2024-02-29T06:46:17.889Z,95916.00
2024-02-29T06:47:17.900Z,95916.00
2024-02-29T06:48:17.879Z,95916.00
2024-02-29T06:49:17.966Z,95912.00
2024-02-29T06:50:17.856Z,95909.00
2024-02-29T06:51:17.861Z,95913.00
2024-02-29T06:52:17.894Z,95912.00
2024-02-29T06:53:18.065Z,95913.00
2024-02-29T06:54:17.860Z,95916.00
2024-02-29T06:55:17.958Z,95916.00
2024-02-29T06:56:17.859Z,95918.00
2024-02-29T06:57:17.858Z,95916.00
2024-02-29T06:58:17.883Z,95916.00
2024-02-29T06:59:17.864Z,95914.00
2024-02-29T07:00:17.861Z,95913.00
2024-02-29T07:01:17.913Z,95911.00
2024-02-29T07:02:17.869Z,95910.00
2024-02-29T07:03:17.885Z,95907.00
2024-02-29T07:04:17.957Z,95907.00
2024-02-29T07:05:17.898Z,95909.00
2024-02-29T07:06:17.866Z,95903.00
2024-02-29T07:07:17.995Z,95902.00
2024-02-29T07:08:17.896Z,95902.00
2024-02-29T07:09:17.889Z,95903.00
2024-02-29T07:10:18.031Z,95901.00
2024-02-29T07:11:17.903Z,95899.00
2024-02-29T07:12:17.897Z,95898.00
2024-02-29T07:13:17.985Z,95897.00
2024-02-29T07:14:17.885Z,95896.00
2024-02-29T07:15:17.935Z,95897.00
2024-02-29T07:16:17.918Z,95895.00
2024-02-29T07:17:17.894Z,95894.00
2024-02-29T07:18:17.957Z,95896.00
2024-02-29T07:19:18.012Z,95895.00
2024-02-29T07:20:17.892Z,95896.00
2024-02-29T07:21:17.903Z,95895.00
2024-02-29T07:22:17.966Z,95893.00
2024-02-29T07:23:17.904Z,95893.00
2024-02-29T07:24:17.895Z,95891.00
2024-02-29T07:25:17.975Z,95893.00
2024-02-29T07:26:17.898Z,95892.00
2024-02-29T07:36:15.209Z,95887.00
2024-02-29T07:36:52.712Z,95888.00
2024-02-29T07:50:15.528Z,95869.00
2024-02-29T07:50:52.506Z,95870.00
2024-02-29T07:54:21.951Z,95867.00
2024-02-29T07:54:59.136Z,95865.00
2024-02-29T07:55:59.144Z,95864.00
2024-02-29T07:56:59.118Z,95860.00
2024-02-29T07:57:59.182Z,95860.00
2024-02-29T08:01:34.929Z,95853.00
2024-02-29T08:02:07.969Z,95856.00
2024-02-29T08:03:07.850Z,95853.00
2024-02-29T08:04:07.862Z,95853.00
2024-02-29T08:05:07.895Z,95850.00
2024-02-29T08:06:07.846Z,95847.00
2024-02-29T08:07:07.838Z,95845.00
2024-02-29T08:08:07.839Z,95841.00
2024-02-29T08:09:10.378Z,95840.00
2024-02-29T08:10:08.075Z,95838.00
2024-02-29T08:11:07.835Z,95837.00
2024-02-29T08:12:07.876Z,95837.00
2024-02-29T08:13:07.911Z,95837.00
2024-02-29T08:14:07.846Z,95837.00
2024-02-29T08:15:07.853Z,95838.00
2024-02-29T08:16:07.939Z,95839.00
2024-02-29T08:17:07.870Z,95838.00
2024-02-29T08:18:34.563Z,95836.00
2024-02-29T08:22:47.910Z,95825.00
2024-02-29T08:23:20.903Z,95823.00
2024-02-29T08:24:20.895Z,95823.00
2024-02-29T08:25:21.076Z,95822.00
2024-02-29T08:26:20.884Z,95822.00
2024-02-29T08:27:20.920Z,95822.00
2024-02-29T08:28:20.957Z,95823.00
2024-02-29T08:29:20.897Z,95824.00
2024-02-29T08:34:00.383Z,95825.00
2024-02-29T08:34:36.171Z,95826.00
2024-02-29T08:36:01.241Z,95827.00
2024-02-29T08:36:36.190Z,95828.00
2024-02-29T08:40:19.899Z,95821.00
2024-02-29T08:42:27.957Z,95814.00
2024-02-29T08:43:22.895Z,95813.00
2024-02-29T08:44:00.140Z,95811.00
2024-02-29T08:45:00.185Z,95810.00
2024-02-29T08:46:00.212Z,95811.00
2024-02-29T08:54:54.422Z,95802.00
2024-02-29T08:55:30.651Z,95803.00
2024-02-29T08:56:30.584Z,95800.00
2024-02-29T08:57:30.662Z,95802.00
2024-02-29T08:58:30.624Z,95800.00
2024-02-29T08:59:30.586Z,95798.00
2024-02-29T09:00:30.585Z,95796.00
2024-02-29T09:01:30.656Z,95795.00
2024-02-29T09:02:30.597Z,95793.00
2024-02-29T09:03:30.642Z,95792.00
2024-02-29T09:04:30.598Z,95788.00
2024-02-29T09:05:30.581Z,95785.00
2024-02-29T09:06:36.236Z,95784.00
2024-02-29T09:07:31.668Z,95784.00
2024-02-29T09:08:30.586Z,95782.00
2024-02-29T09:20:41.889Z,95764.00
2024-02-29T09:21:14.754Z,95763.00
2024-02-29T09:22:14.847Z,95762.00
2024-02-29T09:23:14.752Z,95762.00
2024-02-29T09:24:16.093Z,95762.00
2024-02-29T09:25:14.848Z,95763.00
2024-02-29T09:26:14.873Z,95763.00
2024-02-29T09:27:14.750Z,95764.00
2024-02-29T09:28:14.905Z,95759.00
2024-02-29T09:29:14.800Z,95759.00
2024-02-29T09:30:14.766Z,95758.00
2024-02-29T09:31:14.874Z,95757.00
2024-02-29T09:32:14.760Z,95754.00
2024-02-29T09:33:14.803Z,95754.00
2024-02-29T09:34:14.788Z,95755.00
2024-02-29T09:35:14.778Z,95754.00
2024-02-29T09:36:14.823Z,95751.00
2024-02-29T09:37:14.819Z,95749.00
2024-02-29T09:38:14.780Z,95746.00
2024-02-29T09:39:14.786Z,95744.00
2024-02-29T09:40:14.824Z,95740.00
2024-02-29T09:42:15.561Z,95737.00
2024-02-29T09:43:14.852Z,95735.00
2024-02-29T09:44:14.773Z,95732.00
2024-02-29T09:45:24.351Z,95728.00
2024-02-29T09:46:22.754Z,95725.00
2024-02-29T09:47:22.708Z,95719.00
2024-02-29T09:48:22.753Z,95724.00
2024-02-29T09:49:22.816Z,95719.00
2024-02-29T09:50:22.850Z,95719.00
2024-02-29T09:51:22.922Z,95715.00
2024-02-29T09:52:22.978Z,95710.00
2024-02-29T09:53:22.990Z,95712.00
2024-02-29T09:54:23.073Z,95710.00
2024-02-29T09:55:23.130Z,95707.00
2024-02-29T09:56:23.146Z,95706.00
2024-02-29T09:57:23.178Z,95708.00
2024-02-29T09:58:23.249Z,95707.00
2024-02-29T09:59:23.190Z,95705.00
2024-02-29T10:00:23.232Z,95705.00
2024-02-29T10:01:23.632Z,95704.00
2024-02-29T10:02:23.301Z,95701.00
2024-02-29T10:03:23.359Z,95699.00
2024-02-29T10:04:23.467Z,95698.00
2024-02-29T10:05:23.469Z,95700.00
2024-02-29T10:06:23.468Z,95695.00
2024-02-29T10:07:23.779Z,95696.00
2024-02-29T10:08:23.511Z,95692.00
2024-02-29T10:09:23.550Z,95689.00
2024-02-29T10:10:23.856Z,95693.00
2024-02-29T10:11:23.675Z,95686.00
2024-02-29T10:12:23.657Z,95686.00
2024-02-29T10:13:23.788Z,95683.00
2024-02-29T10:14:23.796Z,95682.00
2024-02-29T10:15:23.817Z,95683.00
2024-02-29T10:16:24.989Z,95683.00
2024-02-29T10:17:23.885Z,95684.00
2024-02-29T10:18:23.875Z,95680.00
2024-02-29T10:19:24.042Z,95679.00
2024-02-29T10:20:23.904Z,95677.00
2024-02-29T10:21:23.872Z,95675.00
2024-02-29T10:23:23.879Z,95673.00
2024-02-29T10:24:24.329Z,95670.00
2024-02-29T10:25:23.915Z,95670.00
2024-02-29T10:26:23.877Z,95668.00
2024-02-29T10:27:23.881Z,95668.00
2024-02-29T10:28:23.916Z,95663.00
2024-02-29T10:29:25.085Z,95663.00
2024-02-29T10:30:23.893Z,95660.00
2024-02-29T10:31:23.980Z,95659.00
2024-02-29T10:32:23.915Z,95658.00
2024-02-29T10:33:23.917Z,95656.00
2024-02-29T10:34:24.059Z,95654.00
2024-02-29T10:35:23.929Z,95654.00
2024-02-29T10:36:23.924Z,95652.00
2024-02-29T10:37:23.928Z,95652.00
2024-02-29T10:38:24.282Z,95651.00
2024-02-29T10:39:23.901Z,95648.00
2024-02-29T10:40:23.998Z,95647.00
2024-02-29T10:41:23.910Z,95642.00
2024-02-29T10:42:23.986Z,95641.00
2024-02-29T10:43:23.970Z,95639.00
2024-02-29T10:44:23.908Z,95635.00
2024-02-29T10:45:26.706Z,95632.00
2024-02-29T10:46:23.951Z,95631.00
2024-02-29T10:47:23.949Z,95628.00
2024-02-29T10:48:23.916Z,95624.00
2024-02-29T10:49:23.943Z,95625.00
2024-02-29T10:50:23.928Z,95622.00
2024-02-29T10:51:27.168Z,95622.00
2024-02-29T10:52:24.012Z,95621.00
2024-02-29T10:53:23.917Z,95619.00
2024-02-29T10:54:23.956Z,95618.00
2024-02-29T10:55:24.060Z,95615.00
2024-02-29T10:56:23.939Z,95613.00
2024-02-29T10:57:23.912Z,95613.00
2024-02-29T10:58:23.982Z,95611.00
2024-02-29T10:59:23.942Z,95608.00
2024-02-29T11:00:23.928Z,95609.00
2024-02-29T11:01:24.128Z,95607.00
2024-02-29T11:02:23.920Z,95602.00
2024-02-29T11:03:23.941Z,95601.00
2024-02-29T11:04:24.093Z,95600.00
2024-02-29T11:05:23.964Z,95600.00
2024-02-29T11:06:23.920Z,95601.00
2024-02-29T11:07:24.009Z,95598.00
2024-02-29T11:08:23.963Z,95597.00
2024-02-29T11:09:27.304Z,95595.00
2024-02-29T11:10:24.020Z,95593.00
2024-02-29T11:11:24.004Z,95588.00
2024-02-29T11:12:23.927Z,95588.00
2024-02-29T11:13:23.973Z,95589.00
2024-02-29T11:18:02.165Z,95579.00
2024-02-29T11:19:03.577Z,95576.00
2024-02-29T11:19:43.230Z,95577.00
2024-02-29T11:20:38.252Z,95576.00
2024-02-29T11:27:48.633Z,95559.00
2024-02-29T11:28:21.600Z,95559.00
2024-02-29T11:29:21.464Z,95554.00
2024-02-29T11:30:21.437Z,95554.00
2024-02-29T11:31:21.552Z,95551.00
2024-02-29T11:32:21.467Z,95548.00
2024-02-29T11:33:21.552Z,95545.00
2024-02-29T11:34:21.512Z,95544.00
2024-02-29T11:35:21.491Z,95544.00
2024-02-29T11:36:21.533Z,95541.00
2024-02-29T11:37:23.347Z,95540.00
2024-02-29T11:38:28.761Z,95539.00
2024-02-29T11:39:22.464Z,95536.00
2024-02-29T11:40:21.717Z,95531.00
2024-02-29T11:41:21.586Z,95529.00
2024-02-29T11:42:21.484Z,95529.00
2024-02-29T11:43:23.577Z,95526.00
2024-02-29T11:44:21.497Z,95525.00
2024-02-29T11:45:21.518Z,95525.00
2024-02-29T11:46:21.587Z,95522.00
2024-02-29T11:47:21.485Z,95519.00
2024-02-29T11:48:21.472Z,95518.00
2024-02-29T11:49:21.523Z,95517.00
2024-02-29T11:57:29.376Z,95507.00
2024-02-29T12:04:55.744Z,95480.00
2024-02-29T12:11:36.212Z,95464.00
2024-02-29T12:12:12.117Z,95465.00
2024-02-29T12:13:13.163Z,95461.00
2024-02-29T12:14:12.284Z,95460.00
2024-02-29T12:15:12.215Z,95460.00
2024-02-29T12:25:24.360Z,95432.00
2024-02-29T12:30:57.795Z,95419.00
2024-02-29T12:31:33.416Z,95416.00
2024-02-29T12:36:09.048Z,95409.00
2024-02-29T12:36:46.473Z,95405.00
2024-02-29T12:37:46.505Z,95402.00
2024-02-29T12:38:46.469Z,95399.00
2024-02-29T12:39:47.274Z,95392.00
2024-02-29T12:40:46.591Z,95389.00
2024-02-29T12:41:46.501Z,95388.00
2024-02-29T12:42:46.512Z,95384.00
2024-02-29T12:43:46.472Z,95386.00
2024-02-29T12:44:46.511Z,95380.00
2024-02-29T12:45:46.521Z,95379.00
2024-02-29T12:46:46.512Z,95376.00
2024-02-29T12:47:46.616Z,95373.00
2024-02-29T12:48:46.521Z,95373.00
2024-02-29T12:49:46.573Z,95369.00
2024-02-29T12:50:46.480Z,95366.00
2024-02-29T12:51:46.537Z,95367.00
2024-02-29T12:52:46.488Z,95365.00
2024-02-29T12:53:46.502Z,95362.00
2024-02-29T12:54:46.532Z,95360.00
2024-02-29T12:55:46.505Z,95360.00
2024-02-29T12:56:46.577Z,95355.00
2024-02-29T12:57:46.574Z,95353.00
2024-02-29T12:58:46.492Z,95347.00
2024-02-29T12:59:46.496Z,95344.00
2024-02-29T13:00:46.563Z,95340.00
2024-02-29T13:01:46.606Z,95340.00
2024-02-29T13:02:46.568Z,95337.00
2024-02-29T13:03:46.661Z,95337.00
2024-02-29T13:04:46.732Z,95335.00
2024-02-29T13:05:46.721Z,95333.00
2024-02-29T13:06:46.798Z,95334.00
2024-02-29T13:07:46.847Z,95332.00
2024-02-29T13:08:47.512Z,95330.00
2024-02-29T13:09:46.906Z,95328.00
2024-02-29T13:10:46.921Z,95328.00
2024-02-29T13:11:47.031Z,95323.00
2024-02-29T13:12:51.899Z,95321.00
2024-02-29T13:13:48.053Z,95318.00
2024-02-29T13:14:47.036Z,95316.00
2024-02-29T13:15:47.107Z,95314.00
2024-02-29T13:16:47.020Z,95314.00
2024-02-29T13:17:47.054Z,95312.00
2024-02-29T13:18:47.033Z,95306.00
2024-02-29T13:19:47.028Z,95307.00
2024-02-29T13:20:47.021Z,95304.00
2024-02-29T13:21:47.048Z,95303.00
2024-02-29T13:22:47.026Z,95303.00
2024-02-29T13:23:47.022Z,95298.00
2024-02-29T13:24:47.152Z,95299.00
2024-02-29T13:25:47.174Z,95297.00
2024-02-29T13:26:47.123Z,95295.00
2024-02-29T13:27:47.176Z,95295.00
2024-02-29T13:28:47.291Z,95296.00
2024-02-29T13:29:47.261Z,95296.00
2024-02-29T13:30:47.333Z,95295.00
2024-02-29T13:31:47.385Z,95293.00
2024-02-29T13:32:47.397Z,95291.00
2024-02-29T13:33:47.450Z,95289.00
2024-02-29T13:34:47.480Z,95287.00
2024-02-29T13:35:47.541Z,95288.00
2024-02-29T13:36:47.611Z,95282.00
2024-02-29T13:37:47.667Z,95280.00
2024-02-29T13:38:47.691Z,95278.00
2024-02-29T13:39:47.780Z,95276.00
2024-02-29T13:40:47.755Z,95275.00
2024-02-29T13:41:47.792Z,95274.00
2024-02-29T13:42:47.858Z,95274.00
2024-02-29T13:43:47.855Z,95274.00
2024-02-29T13:44:48.014Z,95270.00
2024-02-29T13:45:48.032Z,95268.00
2024-02-29T13:46:48.041Z,95267.00
2024-02-29T13:47:48.043Z,95265.00
2024-02-29T13:48:48.101Z,95262.00
2024-02-29T13:49:48.108Z,95259.00
2024-02-29T13:50:48.119Z,95258.00
2024-02-29T13:51:48.214Z,95256.00
2024-02-29T13:52:48.198Z,95254.00
2024-02-29T13:53:48.288Z,95251.00
2024-02-29T13:54:48.456Z,95248.00
2024-02-29T13:55:48.715Z,95245.00
2024-02-29T13:56:48.476Z,95239.00
2024-02-29T13:57:48.460Z,95239.00
2024-02-29T13:58:48.468Z,95233.00
2024-02-29T13:59:48.469Z,95230.00
2024-02-29T14:00:48.685Z,95228.00
2024-02-29T14:01:48.728Z,95228.00
2024-02-29T14:02:48.604Z,95225.00
2024-02-29T14:03:48.700Z,95223.00
2024-02-29T14:04:48.768Z,95220.00
2024-02-29T14:05:53.810Z,95219.00
2024-02-29T14:06:48.998Z,95216.00
2024-02-29T14:07:49.418Z,95216.00
2024-02-29T14:08:48.823Z,95215.00
2024-02-29T14:09:48.970Z,95215.00
2024-02-29T14:10:48.907Z,95214.00
2024-02-29T14:11:48.936Z,95214.00
2024-02-29T14:12:49.188Z,95214.00
2024-02-29T14:13:49.048Z,95212.00
2024-02-29T14:14:49.117Z,95213.00
2024-02-29T14:15:49.212Z,95211.00
2024-02-29T14:16:49.346Z,95211.00
2024-02-29T14:17:56.619Z,95207.00
2024-02-29T14:18:58.215Z,95205.00
2024-02-29T14:19:56.573Z,95203.00
2024-02-29T14:20:56.581Z,95203.00
2024-02-29T14:21:56.584Z,95203.00
2024-02-29T14:22:56.589Z,95202.00
2024-02-29T14:23:56.581Z,95202.00
2024-02-29T14:24:56.615Z,95199.00
2024-02-29T14:25:56.584Z,95198.00
2024-02-29T14:26:56.598Z,95198.00
2024-02-29T14:27:56.600Z,95198.00
2024-02-29T14:28:56.599Z,95198.00
2024-02-29T14:29:56.588Z,95199.00
2024-02-29T14:30:56.633Z,95197.00
2024-02-29T14:31:56.637Z,95193.00
2024-02-29T14:32:56.620Z,95194.00
2024-02-29T14:33:56.613Z,95191.00
2024-02-29T14:34:56.797Z,95191.00
2024-02-29T14:35:56.691Z,95189.00
2024-02-29T14:36:56.747Z,95187.00
2024-02-29T14:37:56.681Z,95185.00
2024-02-29T14:38:56.633Z,95188.00
2024-02-29T14:39:56.735Z,95186.00
2024-02-29T14:40:56.667Z,95187.00
2024-02-29T14:41:56.724Z,95188.00
2024-02-29T14:42:56.803Z,95185.00
2024-02-29T14:43:56.856Z,95185.00
2024-02-29T14:44:56.872Z,95182.00
2024-02-29T14:45:56.926Z,95183.00
2024-02-29T14:46:56.952Z,95183.00
2024-02-29T14:47:57.098Z,95182.00
2024-02-29T14:48:57.042Z,95183.00
2024-02-29T14:49:57.072Z,95179.00
2024-02-29T14:50:57.225Z,95180.00
2024-02-29T14:51:57.235Z,95174.00
2024-02-29T14:52:57.203Z,95175.00
2024-02-29T14:53:57.271Z,95175.00
2024-02-29T14:54:57.389Z,95173.00
2024-02-29T14:55:57.381Z,95171.00
2024-02-29T14:56:57.400Z,95172.00
2024-02-29T14:57:57.446Z,95170.00
2024-02-29T14:58:57.473Z,95171.00
2024-02-29T14:59:57.496Z,95166.00
2024-02-29T15:00:57.673Z,95163.00
2024-02-29T15:01:58.764Z,95164.00
2024-02-29T15:02:57.589Z,95159.00
2024-02-29T15:03:57.732Z,95159.00
2024-02-29T15:04:57.666Z,95157.00
2024-02-29T15:05:57.654Z,95154.00
2024-02-29T15:06:58.705Z,95154.00
2024-02-29T15:07:57.725Z,95150.00
2024-02-29T15:08:57.741Z,95149.00
2024-02-29T15:09:57.812Z,95149.00
2024-02-29T15:10:57.835Z,95147.00
2024-02-29T15:11:57.858Z,95146.00
2024-02-29T15:12:58.101Z,95146.00
2024-02-29T15:13:57.976Z,95146.00
2024-02-29T15:14:57.978Z,95146.00
2024-02-29T15:15:58.042Z,95145.00
2024-02-29T15:16:58.050Z,95144.00
2024-02-29T15:17:58.130Z,95141.00
2024-02-29T15:18:58.245Z,95142.00
2024-02-29T15:19:58.192Z,95142.00
2024-02-29T15:20:58.263Z,95140.00
2024-02-29T15:21:58.341Z,95140.00
2024-02-29T15:22:58.332Z,95137.00
2024-02-29T15:23:58.464Z,95139.00
2024-02-29T15:24:58.587Z,95137.00
2024-02-29T15:25:58.585Z,95133.00
2024-02-29T15:26:58.525Z,95133.00
2024-02-29T15:27:58.585Z,95131.00
2024-02-29T15:28:58.657Z,95129.00
2024-02-29T15:29:58.665Z,95128.00
2024-02-29T15:30:58.727Z,95130.00
2024-02-29T15:31:58.757Z,95130.00
2024-02-29T15:32:58.824Z,95127.00
2024-02-29T15:33:58.923Z,95127.00
2024-02-29T15:34:58.855Z,95125.00
2024-02-29T15:35:58.927Z,95124.00
2024-02-29T15:36:58.954Z,95129.00
2024-02-29T15:37:58.960Z,95123.00
2024-02-29T15:38:58.987Z,95123.00
2024-02-29T15:39:59.089Z,95127.00
2024-02-29T15:40:59.082Z,95126.00
2024-02-29T15:41:59.106Z,95128.00
2024-02-29T15:42:59.155Z,95126.00
2024-02-29T15:43:59.173Z,95123.00
2024-02-29T15:44:59.235Z,95123.00
2024-02-29T15:45:59.451Z,95123.00
2024-02-29T15:46:59.327Z,95124.00
2024-02-29T15:47:59.420Z,95123.00
2024-02-29T15:48:59.425Z,95124.00
2024-02-29T15:49:59.441Z,95118.00
2024-02-29T15:50:59.485Z,95117.00
2024-02-29T15:51:59.648Z,95118.00
2024-02-29T15:52:59.555Z,95114.00
2024-02-29T15:53:59.572Z,95116.00
2024-02-29T15:54:59.652Z,95117.00
2024-02-29T15:56:02.512Z,95119.00
2024-02-29T15:56:59.647Z,95118.00
2024-02-29T15:57:59.808Z,95119.00
2024-02-29T15:58:59.644Z,95118.00